sensor_id;sensor_type;location;lat;lon;timestamp;pressure;altitude;pressure_sealevel;temperature;humidity
19108;BME280;9686;48.832;9.126;2023-02-13T00:02:05;100092.97;;;4.58;100.00
19108;BME280;9686;48.832;9.126;2023-02-13T00:04:30;100092.53;;;4.67;100.00
19108;BME280;9686;48.832;9.126;2023-02-13T00:06:56;100091.56;;;4.65;100.00
19108;BME280;9686;48.832;9.126;2023-02-13T00:09:21;100095.63;;;4.78;100.00
19108;BME280;9686;48.832;9.126;2023-02-13T00:11:46;100098.16;;;4.76;100.00
19108;BME280;9686;48.832;9.126;2023-02-13T00:14:11;100093.88;;;4.59;100.00
19108;BME280;9686;48.832;9.126;2023-02-13T00:16:37;100091.66;;;4.49;100.00
19108;BME280;9686;48.832;9.126;2023-02-13T00:19:02;100093.06;;;4.60;100.00
19108;BME280;9686;48.832;9.126;2023-02-13T00:21:28;100090.41;;;4.58;100.00
19108;BME280;9686;48.832;9.126;2023-02-13T00:23:53;100089.00;;;4.47;100.00
19108;BME280;9686;48.832;9.126;2023-02-13T00:26:18;100078.59;;;4.46;100.00
19108;BME280;9686;48.832;9.126;2023-02-13T00:28:44;100086.78;;;4.55;100.00
19108;BME280;9686;48.832;9.126;2023-02-13T00:31:12;100099.28;;;4.46;100.00
19108;BME280;9686;48.832;9.126;2023-02-13T00:33:38;100079.19;;;4.40;100.00
19108;BME280;9686;48.832;9.126;2023-02-13T00:36:04;100085.97;;;4.20;100.00
19108;BME280;9686;48.832;9.126;2023-02-13T00:38:30;100087.50;;;4.34;100.00
19108;BME280;9686;48.832;9.126;2023-02-13T00:40:56;100083.31;;;4.19;100.00
19108;BME280;9686;48.832;9.126;2023-02-13T00:43:21;100084.13;;;4.36;100.00
19108;BME280;9686;48.832;9.126;2023-02-13T00:45:46;100083.69;;;4.26;100.00
19108;BME280;9686;48.832;9.126;2023-02-13T00:48:12;100087.06;;;4.25;100.00
19108;BME280;9686;48.832;9.126;2023-02-13T00:50:37;100085.97;;;4.56;100.00
19108;BME280;9686;48.832;9.126;2023-02-13T00:53:02;100085.81;;;4.35;100.00
19108;BME280;9686;48.832;9.126;2023-02-13T00:55:27;100089.28;;;4.53;100.00
19108;BME280;9686;48.832;9.126;2023-02-13T00:57:53;100092.09;;;4.76;100.00
19108;BME280;9686;48.832;9.126;2023-02-13T01:00:18;100081.03;;;4.60;100.00
19108;BME280;9686;48.832;9.126;2023-02-13T01:02:44;100085.63;;;4.48;100.00
19108;BME280;9686;48.832;9.126;2023-02-13T01:05:09;100086.66;;;4.52;100.00
19108;BME280;9686;48.832;9.126;2023-02-13T01:07:35;100088.78;;;4.43;100.00
19108;BME280;9686;48.832;9.126;2023-02-13T01:10:00;100079.56;;;4.48;100.00
19108;BME280;9686;48.832;9.126;2023-02-13T01:12:25;100083.53;;;4.59;100.00
19108;BME280;9686;48.832;9.126;2023-02-13T01:14:51;100075.72;;;4.57;100.00
19108;BME280;9686;48.832;9.126;2023-02-13T01:17:16;100084.56;;;4.62;100.00
19108;BME280;9686;48.832;9.126;2023-02-13T01:19:42;100085.31;;;4.60;100.00
19108;BME280;9686;48.832;9.126;2023-02-13T01:22:07;100080.22;;;4.79;100.00
19108;BME280;9686;48.832;9.126;2023-02-13T01:24:33;100079.31;;;4.61;100.00
19108;BME280;9686;48.832;9.126;2023-02-13T01:26:58;100078.09;;;4.53;100.00
19108;BME280;9686;48.832;9.126;2023-02-13T01:29:26;100079.50;;;4.46;100.00
19108;BME280;9686;48.832;9.126;2023-02-13T01:31:51;100076.97;;;4.48;100.00
19108;BME280;9686;48.832;9.126;2023-02-13T01:34:17;100072.09;;;4.36;100.00
19108;BME280;9686;48.832;9.126;2023-02-13T01:36:42;100078.53;;;4.44;100.00
19108;BME280;9686;48.832;9.126;2023-02-13T01:39:10;100067.75;;;4.17;100.00
19108;BME280;9686;48.832;9.126;2023-02-13T01:41:37;100067.75;;;4.17;100.00
19108;BME280;9686;48.832;9.126;2023-02-13T01:44:03;100077.22;;;4.00;100.00
19108;BME280;9686;48.832;9.126;2023-02-13T01:46:32;100069.25;;;3.96;100.00
19108;BME280;9686;48.832;9.126;2023-02-13T01:49:08;100073.47;;;3.94;100.00
19108;BME280;9686;48.832;9.126;2023-02-13T01:51:35;100069.28;;;4.14;100.00
19108;BME280;9686;48.832;9.126;2023-02-13T01:54:12;100067.28;;;3.90;100.00
19108;BME280;9686;48.832;9.126;2023-02-13T01:56:48;100065.81;;;3.95;100.00
19108;BME280;9686;48.832;9.126;2023-02-13T01:59:26;100071.91;;;3.97;100.00
19108;BME280;9686;48.832;9.126;2023-02-13T02:01:53;100069.25;;;3.96;100.00
19108;BME280;9686;48.832;9.126;2023-02-13T02:04:32;100076.59;;;3.88;100.00
19108;BME280;9686;48.832;9.126;2023-02-13T02:07:07;100078.00;;;3.82;100.00
19108;BME280;9686;48.832;9.126;2023-02-13T02:09:38;100074.72;;;3.68;100.00
19108;BME280;9686;48.832;9.126;2023-02-13T02:14:33;100073.19;;;3.71;100.00
19108;BME280;9686;48.832;9.126;2023-02-13T02:16:59;100078.00;;;3.82;100.00
19108;BME280;9686;48.832;9.126;2023-02-13T02:20:12;100071.44;;;3.88;100.00
19108;BME280;9686;48.832;9.126;2023-02-13T02:34:36;100072.91;;;4.17;100.00
19108;BME280;9686;48.832;9.126;2023-02-13T02:40:23;100059.31;;;4.03;100.00
19108;BME280;9686;48.832;9.126;2023-02-13T02:45:30;100058.06;;;4.13;100.00
19108;BME280;9686;48.832;9.126;2023-02-13T02:48:06;100060.16;;;4.20;100.00
19108;BME280;9686;48.832;9.126;2023-02-13T02:50:57;100062.63;;;4.01;100.00
19108;BME280;9686;48.832;9.126;2023-02-13T02:56:49;100060.41;;;3.91;100.00
19108;BME280;9686;48.832;9.126;2023-02-13T02:59:16;100066.84;;;3.65;100.00
19108;BME280;9686;48.832;9.126;2023-02-13T03:02:04;100069.56;;;3.68;100.00
19108;BME280;9686;48.832;9.126;2023-02-13T03:04:52;100069.75;;;3.89;100.00
19108;BME280;9686;48.832;9.126;2023-02-13T03:07:37;100066.84;;;3.99;100.00
19108;BME280;9686;48.832;9.126;2023-02-13T03:10:06;100065.66;;;4.10;100.00
19108;BME280;9686;48.832;9.126;2023-02-13T03:13:00;100065.72;;;4.12;100.00
19108;BME280;9686;48.832;9.126;2023-02-13T03:15:48;100067.66;;;3.82;100.00
19108;BME280;9686;48.832;9.126;2023-02-13T03:18:43;100068.25;;;3.76;100.00
19108;BME280;9686;48.832;9.126;2023-02-13T03:27:54;100076.34;;;3.66;100.00
19108;BME280;9686;48.832;9.126;2023-02-13T03:33:53;100075.97;;;3.92;100.00
19108;BME280;9686;48.832;9.126;2023-02-13T03:42:53;100070.09;;;3.79;100.00
19108;BME280;9686;48.832;9.126;2023-02-13T03:45:31;100079.72;;;3.65;100.00
19108;BME280;9686;48.832;9.126;2023-02-13T03:48:22;100079.88;;;3.68;100.00
19108;BME280;9686;48.832;9.126;2023-02-13T03:51:09;100080.09;;;3.72;100.00
19108;BME280;9686;48.832;9.126;2023-02-13T03:53:37;100082.03;;;3.60;100.00
19108;BME280;9686;48.832;9.126;2023-02-13T03:56:07;100087.97;;;3.42;100.00
19108;BME280;9686;48.832;9.126;2023-02-13T03:58:53;100090.91;;;3.33;100.00
19108;BME280;9686;48.832;9.126;2023-02-13T04:01:42;100095.09;;;3.31;100.00
19108;BME280;9686;48.832;9.126;2023-02-13T04:04:14;100105.00;;;3.23;100.00
19108;BME280;9686;48.832;9.126;2023-02-13T04:06:49;100096.41;;;3.23;100.00
19108;BME280;9686;48.832;9.126;2023-02-13T04:09:16;100101.47;;;3.37;100.00
19108;BME280;9686;48.832;9.126;2023-02-13T04:14:48;100110.84;;;3.04;100.00
19108;BME280;9686;48.832;9.126;2023-02-13T04:17:23;100107.97;;;2.98;100.00
19108;BME280;9686;48.832;9.126;2023-02-13T04:19:51;100113.16;;;3.15;100.00
19108;BME280;9686;48.832;9.126;2023-02-13T04:22:17;100112.44;;;3.17;100.00
19108;BME280;9686;48.832;9.126;2023-02-13T04:24:42;100111.06;;;3.24;100.00
19108;BME280;9686;48.832;9.126;2023-02-13T04:27:12;100113.28;;;3.01;100.00
19108;BME280;9686;48.832;9.126;2023-02-13T04:29:38;100109.00;;;3.02;100.00
19108;BME280;9686;48.832;9.126;2023-02-13T04:32:03;100110.53;;;2.98;100.00
19108;BME280;9686;48.832;9.126;2023-02-13T04:34:29;100110.22;;;2.92;100.00
19108;BME280;9686;48.832;9.126;2023-02-13T04:36:54;100104.53;;;3.14;100.00
19108;BME280;9686;48.832;9.126;2023-02-13T04:39:20;100114.97;;;3.01;100.00
19108;BME280;9686;48.832;9.126;2023-02-13T04:41:45;100107.03;;;3.29;100.00
19108;BME280;9686;48.832;9.126;2023-02-13T04:44:10;100108.06;;;3.32;100.00
19108;BME280;9686;48.832;9.126;2023-02-13T04:46:36;100111.25;;;3.12;100.00
19108;BME280;9686;48.832;9.126;2023-02-13T04:49:01;100115.16;;;3.20;100.00
19108;BME280;9686;48.832;9.126;2023-02-13T04:51:26;100118.81;;;3.40;100.00
19108;BME280;9686;48.832;9.126;2023-02-13T04:53:52;100119.22;;;3.48;100.00
19108;BME280;9686;48.832;9.126;2023-02-13T04:56:17;100115.81;;;3.32;100.00
19108;BME280;9686;48.832;9.126;2023-02-13T04:58:42;100123.78;;;3.37;100.00
19108;BME280;9686;48.832;9.126;2023-02-13T05:01:12;100117.09;;;3.24;100.00
19108;BME280;9686;48.832;9.126;2023-02-13T05:03:38;100118.25;;;2.98;100.00
19108;BME280;9686;48.832;9.126;2023-02-13T05:06:03;100114.72;;;2.96;100.00
19108;BME280;9686;48.832;9.126;2023-02-13T05:08:29;100112.16;;;2.96;100.00
19108;BME280;9686;48.832;9.126;2023-02-13T05:10:54;100116.78;;;3.18;100.00
19108;BME280;9686;48.832;9.126;2023-02-13T05:13:19;100117.56;;;3.33;100.00
19108;BME280;9686;48.832;9.126;2023-02-13T05:15:46;100118.88;;;3.25;100.00
19108;BME280;9686;48.832;9.126;2023-02-13T05:18:12;100119.09;;;3.14;100.00
19108;BME280;9686;48.832;9.126;2023-02-13T05:20:37;100118.31;;;3.15;100.00
19108;BME280;9686;48.832;9.126;2023-02-13T05:23:03;100118.88;;;3.25;100.00
19108;BME280;9686;48.832;9.126;2023-02-13T05:25:47;100118.84;;;3.09;100.00
19108;BME280;9686;48.832;9.126;2023-02-13T05:28:12;100120.16;;;3.17;100.00
19108;BME280;9686;48.832;9.126;2023-02-13T05:30:56;100122.50;;;3.13;100.00
19108;BME280;9686;48.832;9.126;2023-02-13T05:33:21;100116.97;;;2.90;100.00
19108;BME280;9686;48.832;9.126;2023-02-13T05:35:47;100123.84;;;2.75;100.00
19108;BME280;9686;48.832;9.126;2023-02-13T05:38:12;100124.09;;;2.79;100.00
19108;BME280;9686;48.832;9.126;2023-02-13T05:40:37;100119.00;;;2.81;100.00
19108;BME280;9686;48.832;9.126;2023-02-13T05:43:03;100119.72;;;2.93;100.00
19108;BME280;9686;48.832;9.126;2023-02-13T05:45:28;100120.59;;;2.94;100.00
19108;BME280;9686;48.832;9.126;2023-02-13T05:47:53;100116.25;;;2.93;100.00
19108;BME280;9686;48.832;9.126;2023-02-13T05:50:18;100119.53;;;2.90;100.00
19108;BME280;9686;48.832;9.126;2023-02-13T05:52:44;100117.56;;;2.86;100.00
19108;BME280;9686;48.832;9.126;2023-02-13T05:55:09;100122.22;;;2.77;100.00
19108;BME280;9686;48.832;9.126;2023-02-13T05:57:34;100118.13;;;2.81;100.00
19108;BME280;9686;48.832;9.126;2023-02-13T06:00:00;100123.03;;;2.76;100.00
19108;BME280;9686;48.832;9.126;2023-02-13T06:02:25;100109.84;;;2.86;100.00
19108;BME280;9686;48.832;9.126;2023-02-13T06:04:50;100110.41;;;2.81;100.00
19108;BME280;9686;48.832;9.126;2023-02-13T06:07:16;100111.69;;;2.72;100.00
19108;BME280;9686;48.832;9.126;2023-02-13T06:09:41;100107.34;;;2.71;100.00
19108;BME280;9686;48.832;9.126;2023-02-13T06:12:06;100114.50;;;2.77;100.00
19108;BME280;9686;48.832;9.126;2023-02-13T06:14:32;100112.97;;;2.81;100.00
19108;BME280;9686;48.832;9.126;2023-02-13T06:16:57;100106.50;;;2.87;100.00
19108;BME280;9686;48.832;9.126;2023-02-13T06:19:22;100112.09;;;2.80;100.00
19108;BME280;9686;48.832;9.126;2023-02-13T06:21:48;100119.31;;;2.71;100.00
19108;BME280;9686;48.832;9.126;2023-02-13T06:24:13;100121.91;;;2.71;100.00
19108;BME280;9686;48.832;9.126;2023-02-13T06:26:38;100118.44;;;2.70;100.00
19108;BME280;9686;48.832;9.126;2023-02-13T06:29:04;100117.72;;;2.73;100.00
19108;BME280;9686;48.832;9.126;2023-02-13T06:31:29;100120.53;;;2.77;100.00
19108;BME280;9686;48.832;9.126;2023-02-13T06:33:54;100118.00;;;2.63;100.00
19108;BME280;9686;48.832;9.126;2023-02-13T06:36:20;100126.16;;;2.70;100.00
19108;BME280;9686;48.832;9.126;2023-02-13T06:38:45;100118.50;;;2.87;100.00
19108;BME280;9686;48.832;9.126;2023-02-13T06:41:10;100126.31;;;2.73;100.00
19108;BME280;9686;48.832;9.126;2023-02-13T06:43:36;100117.97;;;2.77;100.00
19108;BME280;9686;48.832;9.126;2023-02-13T06:46:07;100124.66;;;2.59;100.00
19108;BME280;9686;48.832;9.126;2023-02-13T06:48:33;100125.03;;;2.65;100.00
19108;BME280;9686;48.832;9.126;2023-02-13T06:50:58;100126.53;;;2.62;100.00
19108;BME280;9686;48.832;9.126;2023-02-13T06:53:26;100120.06;;;2.54;100.00
19108;BME280;9686;48.832;9.126;2023-02-13T06:55:53;100122.44;;;2.65;100.00
19108;BME280;9686;48.832;9.126;2023-02-13T06:58:22;100127.59;;;2.65;100.00
19108;BME280;9686;48.832;9.126;2023-02-13T07:00:49;100133.50;;;2.79;100.00
19108;BME280;9686;48.832;9.126;2023-02-13T07:03:14;100132.66;;;2.64;100.00
19108;BME280;9686;48.832;9.126;2023-02-13T07:05:41;100129.13;;;2.62;100.00
19108;BME280;9686;48.832;9.126;2023-02-13T07:08:08;100131.69;;;2.62;100.00
19108;BME280;9686;48.832;9.126;2023-02-13T07:10:36;100133.25;;;2.60;100.00
19108;BME280;9686;48.832;9.126;2023-02-13T07:13:01;100138.06;;;2.68;100.00
19108;BME280;9686;48.832;9.126;2023-02-13T07:15:27;100134.78;;;2.71;100.00
19108;BME280;9686;48.832;9.126;2023-02-13T07:17:58;100128.59;;;2.84;100.00
19108;BME280;9686;48.832;9.126;2023-02-13T07:20:24;100136.16;;;2.81;100.00
19108;BME280;9686;48.832;9.126;2023-02-13T07:22:50;100135.44;;;2.83;100.00
19108;BME280;9686;48.832;9.126;2023-02-13T07:25:16;100143.06;;;2.82;100.00
19108;BME280;9686;48.832;9.126;2023-02-13T07:27:41;100134.59;;;2.99;100.00
19108;BME280;9686;48.832;9.126;2023-02-13T07:30:07;100144.88;;;3.14;100.00
19108;BME280;9686;48.832;9.126;2023-02-13T07:32:32;100138.28;;;3.19;100.00
19108;BME280;9686;48.832;9.126;2023-02-13T07:34:57;100137.72;;;3.24;100.00
19108;BME280;9686;48.832;9.126;2023-02-13T07:37:23;100145.28;;;3.37;100.00
19108;BME280;9686;48.832;9.126;2023-02-13T07:39:48;100144.97;;;3.64;100.00
19108;BME280;9686;48.832;9.126;2023-02-13T07:42:14;100144.91;;;3.79;100.00
19108;BME280;9686;48.832;9.126;2023-02-13T07:44:39;100144.25;;;3.99;100.00
19108;BME280;9686;48.832;9.126;2023-02-13T07:47:04;100143.06;;;4.10;100.00
19108;BME280;9686;48.832;9.126;2023-02-13T07:49:30;100143.72;;;4.22;100.00
19108;BME280;9686;48.832;9.126;2023-02-13T07:51:56;100134.34;;;4.24;100.00
19108;BME280;9686;48.832;9.126;2023-02-13T07:54:22;100141.81;;;4.36;100.00
19108;BME280;9686;48.832;9.126;2023-02-13T07:56:48;100136.59;;;4.52;100.00
19108;BME280;9686;48.832;9.126;2023-02-13T07:59:13;100137.94;;;4.44;100.00
19108;BME280;9686;48.832;9.126;2023-02-13T08:01:38;100140.09;;;4.71;100.00
19108;BME280;9686;48.832;9.126;2023-02-13T08:04:04;100136.81;;;4.92;100.00
19108;BME280;9686;48.832;9.126;2023-02-13T08:06:29;100141.97;;;4.92;100.00
19108;BME280;9686;48.832;9.126;2023-02-13T08:08:54;100132.44;;;5.09;100.00
19108;BME280;9686;48.832;9.126;2023-02-13T08:11:38;100139.44;;;5.12;100.00
19108;BME280;9686;48.832;9.126;2023-02-13T08:14:23;100133.53;;;5.14;100.00
19108;BME280;9686;48.832;9.126;2023-02-13T08:16:50;100134.72;;;5.21;100.00
19108;BME280;9686;48.832;9.126;2023-02-13T08:19:16;100140.50;;;5.35;100.00
19108;BME280;9686;48.832;9.126;2023-02-13T08:21:41;100140.53;;;5.54;100.00
19108;BME280;9686;48.832;9.126;2023-02-13T08:24:07;100135.16;;;5.49;100.00
19108;BME280;9686;48.832;9.126;2023-02-13T08:26:33;100138.41;;;5.65;100.00
19108;BME280;9686;48.832;9.126;2023-02-13T08:28:58;100136.31;;;5.75;100.00
19108;BME280;9686;48.832;9.126;2023-02-13T08:31:23;100134.50;;;5.73;100.00
19108;BME280;9686;48.832;9.126;2023-02-13T08:33:49;100126.56;;;5.89;100.00
19108;BME280;9686;48.832;9.126;2023-02-13T08:36:14;100128.09;;;6.03;100.00
19108;BME280;9686;48.832;9.126;2023-02-13T08:38:40;100120.78;;;5.95;100.00
19108;BME280;9686;48.832;9.126;2023-02-13T08:41:05;100124.47;;;6.00;100.00
19108;BME280;9686;48.832;9.126;2023-02-13T08:43:30;100119.25;;;6.19;100.00
19108;BME280;9686;48.832;9.126;2023-02-13T08:45:59;100119.91;;;6.34;100.00
19108;BME280;9686;48.832;9.126;2023-02-13T08:48:25;100112.19;;;6.36;100.00
19108;BME280;9686;48.832;9.126;2023-02-13T08:50:51;100118.13;;;6.33;100.00
19108;BME280;9686;48.832;9.126;2023-02-13T08:53:16;100114.59;;;6.52;100.00
19108;BME280;9686;48.832;9.126;2023-02-13T08:55:42;100110.41;;;6.56;100.00
19108;BME280;9686;48.832;9.126;2023-02-13T08:58:07;100108.44;;;6.71;100.00
19108;BME280;9686;48.832;9.126;2023-02-13T09:00:32;100109.44;;;6.74;100.00
19108;BME280;9686;48.832;9.126;2023-02-13T09:03:02;100109.84;;;7.06;100.00
19108;BME280;9686;48.832;9.126;2023-02-13T09:05:29;100108.75;;;7.23;100.00
19108;BME280;9686;48.832;9.126;2023-02-13T09:07:58;100111.59;;;7.29;100.00
19108;BME280;9686;48.832;9.126;2023-02-13T09:10:24;100113.81;;;7.20;100.00
19108;BME280;9686;48.832;9.126;2023-02-13T09:12:52;100115.47;;;7.40;100.00
19108;BME280;9686;48.832;9.126;2023-02-13T09:15:18;100108.16;;;7.54;100.00
19108;BME280;9686;48.832;9.126;2023-02-13T09:17:43;100110.59;;;7.50;100.00
19108;BME280;9686;48.832;9.126;2023-02-13T09:20:09;100101.97;;;7.51;100.00
19108;BME280;9686;48.832;9.126;2023-02-13T09:22:34;100110.50;;;7.70;100.00
19108;BME280;9686;48.832;9.126;2023-02-13T09:24:59;100098.66;;;7.79;100.00
19108;BME280;9686;48.832;9.126;2023-02-13T09:27:28;100111.84;;;7.83;100.00
19108;BME280;9686;48.832;9.126;2023-02-13T09:29:54;100108.81;;;7.96;100.00
19108;BME280;9686;48.832;9.126;2023-02-13T09:32:19;100107.41;;;8.06;100.00
19108;BME280;9686;48.832;9.126;2023-02-13T09:34:45;100110.34;;;8.15;100.00
19108;BME280;9686;48.832;9.126;2023-02-13T09:37:10;100111.38;;;8.20;100.00
19108;BME280;9686;48.832;9.126;2023-02-13T09:39:35;100111.13;;;8.37;100.00
19108;BME280;9686;48.832;9.126;2023-02-13T09:42:01;100107.84;;;8.42;100.00
19108;BME280;9686;48.832;9.126;2023-02-13T09:44:38;100114.16;;;8.50;100.00
19108;BME280;9686;48.832;9.126;2023-02-13T09:49:42;100114.75;;;8.69;100.00
19108;BME280;9686;48.832;9.126;2023-02-13T09:52:09;100118.53;;;8.78;100.00
19108;BME280;9686;48.832;9.126;2023-02-13T09:54:35;100127.97;;;8.75;100.00
19108;BME280;9686;48.832;9.126;2023-02-13T10:02:36;100111.34;;;9.26;100.00
19108;BME280;9686;48.832;9.126;2023-02-13T10:08:28;100114.94;;;9.30;100.00
19108;BME280;9686;48.832;9.126;2023-02-13T10:11:01;100121.63;;;9.50;97.14
19108;BME280;9686;48.832;9.126;2023-02-13T10:16:53;100121.75;;;9.55;95.33
19108;BME280;9686;48.832;9.126;2023-02-13T10:19:36;100117.53;;;9.60;95.66
19108;BME280;9686;48.832;9.126;2023-02-13T10:22:27;100113.41;;;9.67;90.27
19108;BME280;9686;48.832;9.126;2023-02-13T10:24:56;100110.13;;;9.74;91.83
19108;BME280;9686;48.832;9.126;2023-02-13T10:27:34;100106.59;;;9.72;91.23
19108;BME280;9686;48.832;9.126;2023-02-13T10:30:16;100109.13;;;9.69;92.26
19108;BME280;9686;48.832;9.126;2023-02-13T10:32:57;100112.53;;;9.98;89.38
19108;BME280;9686;48.832;9.126;2023-02-13T10:38:16;100107.22;;;10.26;85.54
19108;BME280;9686;48.832;9.126;2023-02-13T10:43:19;100106.38;;;10.27;82.78
19108;BME280;9686;48.832;9.126;2023-02-13T10:48:37;100099.84;;;10.43;82.73
19108;BME280;9686;48.832;9.126;2023-02-13T10:54:22;100084.44;;;10.52;83.10
19108;BME280;9686;48.832;9.126;2023-02-13T10:57:18;100088.28;;;10.68;80.50
19108;BME280;9686;48.832;9.126;2023-02-13T11:02:20;100076.50;;;10.85;78.56
19108;BME280;9686;48.832;9.126;2023-02-13T11:04:46;100073.56;;;11.09;76.46
19108;BME280;9686;48.832;9.126;2023-02-13T11:07:17;100075.06;;;10.98;77.29
19108;BME280;9686;48.832;9.126;2023-02-13T11:09:46;100074.59;;;11.17;75.65
19108;BME280;9686;48.832;9.126;2023-02-13T11:14:55;100065.56;;;11.01;75.99
19108;BME280;9686;48.832;9.126;2023-02-13T11:17:21;100067.59;;;10.75;78.23
19108;BME280;9686;48.832;9.126;2023-02-13T11:19:58;100067.50;;;11.10;74.59
19108;BME280;9686;48.832;9.126;2023-02-13T11:22:29;100077.03;;;11.08;74.76
19108;BME280;9686;48.832;9.126;2023-02-13T11:25:39;100077.25;;;11.19;75.54
19108;BME280;9686;48.832;9.126;2023-02-13T11:27:48;100063.44;;;11.23;75.99
19108;BME280;9686;48.832;9.126;2023-02-13T11:33:00;100063.25;;;11.15;74.72
19108;BME280;9686;48.832;9.126;2023-02-13T11:40:35;100064.84;;;11.49;74.72
19108;BME280;9686;48.832;9.126;2023-02-13T11:43:01;100058.94;;;11.58;75.39
19108;BME280;9686;48.832;9.126;2023-02-13T11:45:26;100055.94;;;11.82;74.40
19108;BME280;9686;48.832;9.126;2023-02-13T11:47:53;100057.81;;;11.90;70.91
19108;BME280;9686;48.832;9.126;2023-02-13T11:55:30;100047.34;;;12.39;70.51
19108;BME280;9686;48.832;9.126;2023-02-13T11:57:58;100049.09;;;12.95;67.43
19108;BME280;9686;48.832;9.126;2023-02-13T12:00:29;100043.47;;;14.06;62.52
19108;BME280;9686;48.832;9.126;2023-02-13T12:03:02;100035.25;;;14.69;57.74
19108;BME280;9686;48.832;9.126;2023-02-13T12:06:12;100036.50;;;15.38;55.26
19108;BME280;9686;48.832;9.126;2023-02-13T12:08:41;100046.09;;;15.32;53.90
19108;BME280;9686;48.832;9.126;2023-02-13T12:13:52;100049.00;;;16.81;47.50
19108;BME280;9686;48.832;9.126;2023-02-13T12:16:22;100043.72;;;16.63;47.88
19108;BME280;9686;48.832;9.126;2023-02-13T12:18:53;100036.72;;;16.82;47.29
19108;BME280;9686;48.832;9.126;2023-02-13T12:21:50;100032.22;;;17.23;44.67
19108;BME280;9686;48.832;9.126;2023-02-13T12:27:36;100032.91;;;17.62;nan
19108;BME280;9686;48.832;9.126;2023-02-13T12:35:44;100023.53;;;15.95;nan
19108;BME280;9686;48.832;9.126;2023-02-13T12:41:13;100023.16;;;14.97;nan
19108;BME280;9686;48.832;9.126;2023-02-13T12:51:51;100019.97;;;14.21;nan
19108;BME280;9686;48.832;9.126;2023-02-13T12:54:27;100028.72;;;14.22;nan
19108;BME280;9686;48.832;9.126;2023-02-13T13:08:24;100016.63;;;13.51;nan
19108;BME280;9686;48.832;9.126;2023-02-13T13:11:01;100017.69;;;13.65;nan
19108;BME280;9686;48.832;9.126;2023-02-13T13:22:32;100012.94;;;13.31;nan
19108;BME280;9686;48.832;9.126;2023-02-13T13:25:22;100012.97;;;13.34;nan
19108;BME280;9686;48.832;9.126;2023-02-13T13:27:52;100010.41;;;13.38;nan
19108;BME280;9686;48.832;9.126;2023-02-13T13:30:30;100010.44;;;13.43;nan
19108;BME280;9686;48.832;9.126;2023-02-13T13:33:02;100012.44;;;13.64;nan
19108;BME280;9686;48.832;9.126;2023-02-13T13:35:30;100003.69;;;13.62;nan
19108;BME280;9686;48.832;9.126;2023-02-13T13:38:09;100002.84;;;13.66;nan
19108;BME280;9686;48.832;9.126;2023-02-13T13:40:41;99999.44;;;13.76;nan
19108;BME280;9686;48.832;9.126;2023-02-13T13:45:50;99995.19;;;13.87;nan
19108;BME280;9686;48.832;9.126;2023-02-13T13:48:56;99996.97;;;13.91;nan
19108;BME280;9686;48.832;9.126;2023-02-13T13:51:25;99992.69;;;14.01;nan
19108;BME280;9686;48.832;9.126;2023-02-13T13:56:25;99994.19;;;13.76;nan
19108;BME280;9686;48.832;9.126;2023-02-13T13:58:51;100001.09;;;13.65;nan
19108;BME280;9686;48.832;9.126;2023-02-13T14:01:29;99992.41;;;13.70;nan
19108;BME280;9686;48.832;9.126;2023-02-13T14:04:03;99995.88;;;13.68;nan
19108;BME280;9686;48.832;9.126;2023-02-13T14:09:41;99999.53;;;13.83;nan
19108;BME280;9686;48.832;9.126;2023-02-13T14:14:52;99991.97;;;14.17;nan
19108;BME280;9686;48.832;9.126;2023-02-13T14:23:05;99993.13;;;14.51;nan
19108;BME280;9686;48.832;9.126;2023-02-13T14:25:31;99988.66;;;14.42;nan
19108;BME280;9686;48.832;9.126;2023-02-13T14:27:58;99987.59;;;14.19;nan
19108;BME280;9686;48.832;9.126;2023-02-13T14:30:27;99985.00;;;14.24;nan
19108;BME280;9686;48.832;9.126;2023-02-13T14:32:54;99992.91;;;14.30;nan
19108;BME280;9686;48.832;9.126;2023-02-13T14:35:27;99987.63;;;14.25;nan
19108;BME280;9686;48.832;9.126;2023-02-13T14:38:01;99995.38;;;14.07;nan
19108;BME280;9686;48.832;9.126;2023-02-13T14:43:26;99991.25;;;14.36;nan
19108;BME280;9686;48.832;9.126;2023-02-13T14:45:54;99984.34;;;14.47;nan
19108;BME280;9686;48.832;9.126;2023-02-13T14:48:26;99983.59;;;14.64;nan
19108;BME280;9686;48.832;9.126;2023-02-13T14:50:55;99986.09;;;14.47;nan
19108;BME280;9686;48.832;9.126;2023-02-13T14:53:25;99982.44;;;14.30;nan
19108;BME280;9686;48.832;9.126;2023-02-13T14:56:13;99980.72;;;14.33;nan
19108;BME280;9686;48.832;9.126;2023-02-13T14:58:49;99974.56;;;14.30;nan
19108;BME280;9686;48.832;9.126;2023-02-13T15:01:33;99972.72;;;14.18;nan
19108;BME280;9686;48.832;9.126;2023-02-13T15:04:34;99973.59;;;14.18;nan
19108;BME280;9686;48.832;9.126;2023-02-13T15:07:06;99971.78;;;14.08;nan
19108;BME280;9686;48.832;9.126;2023-02-13T15:09:38;99970.78;;;13.96;nan
19108;BME280;9686;48.832;9.126;2023-02-13T15:14:52;99969.19;;;14.10;nan
19108;BME280;9686;48.832;9.126;2023-02-13T15:17:20;99973.44;;;14.02;nan
19108;BME280;9686;48.832;9.126;2023-02-13T15:19:49;99963.91;;;14.07;nan
19108;BME280;9686;48.832;9.126;2023-02-13T15:22:20;99959.44;;;13.98;nan
19108;BME280;9686;48.832;9.126;2023-02-13T15:24:49;99961.19;;;13.99;nan
19108;BME280;9686;48.832;9.126;2023-02-13T15:27:23;99950.69;;;13.96;nan
19108;BME280;9686;48.832;9.126;2023-02-13T15:32:29;99952.25;;;13.76;nan
19108;BME280;9686;48.832;9.126;2023-02-13T15:34:55;99952.34;;;13.83;nan
19108;BME280;9686;48.832;9.126;2023-02-13T15:37:23;99950.47;;;13.70;nan
19108;BME280;9686;48.832;9.126;2023-02-13T15:39:48;99959.38;;;13.89;nan
19108;BME280;9686;48.832;9.126;2023-02-13T15:42:14;99956.00;;;14.04;nan
19108;BME280;9686;48.832;9.126;2023-02-13T15:44:39;99968.78;;;13.67;nan
19108;BME280;9686;48.832;9.126;2023-02-13T15:47:25;99966.91;;;13.54;nan
19108;BME280;9686;48.832;9.126;2023-02-13T15:49:52;99971.00;;;13.29;nan
19108;BME280;9686;48.832;9.126;2023-02-13T15:52:35;99963.16;;;13.29;nan
19108;BME280;9686;48.832;9.126;2023-02-13T15:55:02;99966.41;;;13.14;nan